TimeCST,TemperatureF,Dew PointF,Humidity,Sea Level PressureIn,VisibilityMPH,Wind Direction,Wind SpeedMPH,Gust SpeedMPH,PrecipitationIn,Events,Conditions,WindDirDegrees,DateUTC
12:53 AM,36.0,21.0,55,30.43,10.0,ESE,11.5,-,N/A,,Clear,120,2012-11-24 06:53:00
1:53 AM,30.9,19.9,64,30.43,10.0,SSE,6.9,-,N/A,,Clear,150,2012-11-24 07:53:00
2:53 AM,32.0,19.9,61,30.42,10.0,SSW,9.2,-,N/A,,Clear,200,2012-11-24 08:53:00
3:53 AM,32.0,21.0,64,30.40,10.0,SSW,11.5,-,N/A,,Clear,200,2012-11-24 09:53:00
4:53 AM,34.0,21.0,59,30.38,10.0,SSW,9.2,-,N/A,,Clear,210,2012-11-24 10:53:00
6:53 AM,36.0,19.9,52,30.36,10.0,SSW,18.4,-,N/A,,Clear,210,2012-11-24 12:53:00
7:53 AM,35.1,21.0,57,30.36,10.0,SSW,12.7,-,N/A,,Clear,200,2012-11-24 13:53:00
8:53 AM,39.0,21.9,50,30.34,10.0,SSW,18.4,-,N/A,,Clear,200,2012-11-24 14:53:00
9:53 AM,45.0,21.9,40,30.32,10.0,South,20.7,32.2,N/A,,Clear,190,2012-11-24 15:53:00
10:53 AM,51.1,23.0,33,30.29,10.0,SSW,20.7,-,N/A,,Clear,200,2012-11-24 16:53:00
11:53 AM,55.0,23.0,29,30.24,10.0,South,18.4,29.9,N/A,,Clear,190,2012-11-24 17:53:00
12:53 PM,57.9,19.9,23,30.17,10.0,SSW,21.9,32.2,N/A,,Clear,200,2012-11-24 18:53:00
1:53 PM,60.1,19.0,20,30.13,10.0,South,24.2,31.1,N/A,,Clear,190,2012-11-24 19:53:00
2:53 PM,61.0,19.0,20,30.07,10.0,South,21.9,32.2,N/A,,Clear,190,2012-11-24 20:53:00
3:53 PM,61.0,19.0,20,30.05,10.0,South,23.0,29.9,N/A,,Clear,190,2012-11-24 21:53:00
4:53 PM,57.9,21.9,25,30.04,10.0,South,18.4,-,N/A,,Clear,190,2012-11-24 22:53:00
5:53 PM,55.0,24.1,30,30.02,10.0,South,15.0,-,N/A,,Clear,180,2012-11-24 23:53:00
6:53 PM,52.0,24.1,34,30.02,10.0,South,15.0,-,N/A,,Clear,180,2012-11-25 00:53:00
7:53 PM,50.0,25.0,38,30.03,10.0,South,15.0,-,N/A,,Clear,180,2012-11-25 01:53:00
8:53 PM,48.9,21.9,35,30.01,10.0,South,17.3,-,N/A,,Clear,180,2012-11-25 02:53:00
9:53 PM,50.0,21.0,32,29.99,10.0,South,18.4,-,N/A,,Clear,180,2012-11-25 03:53:00
10:53 PM,48.9,21.9,35,29.97,10.0,South,18.4,-,N/A,,Clear,180,2012-11-25 04:53:00
11:53 PM,46.0,23.0,40,29.96,10.0,South,16.1,-,N/A,,Clear,180,2012-11-25 05:53:00